Scroll down
FLIGHT INFORMATION
Cargolux Airlines International

CLX1115

At Arrival Gate

KSFO
 PAFA
DATE: 2020-11-15
GATE:  -
GATE DEPARTURE: 19:12
TAKEOFF: 19:22
DATE: 2020-11-15
GATE:  -
LANDING: 23:50
GATE ARRIVAL: 23:59
FLIGHT DATA
Crew: 
Speed: 
512 kts
Altitude: 
36,037 ft
Stage Length: 
1,864.5 nm
Block Time: 
4.8 hrs
Flight Time: 
4.5 hrs
Fuel Used: 
108,702 lb
Cleared Route: KSFO AMAKR BOXER KYLLE KANUA VIDKU TAMRU SIMLU KURTT PETPA NAKBI METPA KATCH YAK CFZMR TOVAD CFXBV ORT RDFLG PAFA
TRACK DATA
50,000 ft 1,000 kts
AIRCRAFT INFO AND CUMULATIVE STATS
Aircraft Type: 
B748F
Registration: 
SELCAL: 
CKGQ
MSN/LN: 
35806 / 1423
Total Flights: 
1
Total Block Time: 
4.8 hrs
Total Flight Time: 
4.5 hrs
Total Fuel Time: 
108,702 lb
DATALINK LOG | Newest first | Current as of: 2020-12-03 06:29:17
LABEL SEQUENCE CONTENT Dn/Up
QD595523:59 23.5▼ Dn
QC504723:50▼ Dn
GA2431GATE PENDING▲ Up
GR2420PAFA 23:44 MAAS YP/UM WCHR/S/C HI-VAL NO DIPL/VIP NO▼ Dn
2U2100PAFA 152253Z 00000KT 10SM -SN FEW014 SCT035 SCT055 BKN200 M17/M19 A3012 RMK AO2 SLP214 P0000 T11721194▲ Up
2S2218PAFA▼ Dn
464037/OV XXX /TM 2239 /FL360 /TP B748 /SK SCT /TA -53 /WV 207/05 /TB LGT /RM NONE▼ Dn
5U3940PAFA 160233Z 00000KT 10SM -SN SCT007 OVC030 M18/M20 A3010▲ Up
5S3936PAFA▼ Dn
QB232819:22▼ Dn
QA131819:12 132.3▼ Dn
5U4325PAFA 152243Z VRB03KT 10SM FEW015 BKN040 M15/M17 A3001▲ Up
5S4455PAFA▼ Dn
2U4318KSFO 151756Z 11004KT 10SM FEW021 13/08 A3032 RMK AO2 SLP267 T01280083 10128 20061 53008▲ Up
2S4354KSFO▼ Dn
A31123CLEARED TO PAFA VIA AMAKR BOXER B453 SIMLU B453 KATCH YAK J507 ORT J502 RDFLG HRDNG2. SQUAWK 4023.▲ Up
Q01021[LINK ACK]▲ Up
Q01021[LINK TEST]▼ Dn


AIRCRAFT HISTORY
FLIGHT DATE FLIGHT NO. ORIGIN DESTINATION CLEARED ROUTE BLOCK TIME FLIGHT TIME FUEL USED PILOT
2020-11-15CLX1115KSFO PAFA KSFO AMAKR BOXER KYLLE KANUA VIDKU TAMRU SIMLU KURTT PETPA NAKBI METPA KATCH YAK CFZMR TOVAD CFXBV ORT RDFLG PAFA4.8 hrs4.5 hrs108,702 lbMarc Ehnle